Seneimaru — JG5357 — position and weather

sailwx.info

Track history (hours):
 
Tides and Currents Weather Stations Pressure Air Temp Water Temp Dewpoint Dewpoint Depression Visibility Wind Speed Wind Dir Waves Ship Positions

Seneimaru

Last reported at 2014-Oct-31 20:33 UTC. Time now 2014-Oct-31 20:55 UTC.
Position N 35°24' E 139°44'.

Length 72 m; draft 5.9 m.

Type: Cargo ship. MMSI: 431100477.

Date/timePositionNaut miles runAvg speedWind from/ knotsBaromVisibWave heightAir tempDewpointWater temp
2014-Oct-31 20:33N 35°24' E 139°44'0 0.0
2014-Oct-31 19:31N 35°24' E 139°44'0 0.0
2014-Oct-31 18:31N 35°24' E 139°44'9 9.3
2014-Oct-31 17:33N 35°15' E 139°47'4 0.1
2014-Oct-30 07:27N 35°11' E 139°46'1010.7
2014-Oct-30 06:33N 35°20' E 139°43'1010.4
2014-Oct-30 05:33N 35°30' E 139°48'4 3.9
2014-Oct-30 04:33N 35°30' E 139°43'0 0.0
2014-Oct-30 03:33N 35°30' E 139°43'0 0.0
2014-Oct-30 02:33N 35°30' E 139°43'0 0.0
2014-Oct-30 01:33N 35°30' E 139°43'0 0.0
2014-Oct-30 00:33N 35°30' E 139°43'0 0.0
2014-Oct-29 23:33N 35°30' E 139°43'0 0.0
2014-Oct-29 22:33N 35°30' E 139°43'0 0.0
2014-Oct-29 21:33N 35°30' E 139°43'4 4.3
2014-Oct-29 20:33N 35°26' E 139°44'2 2.3
2014-Oct-29 19:33N 35°24' E 139°44'0 0.0
2014-Oct-29 18:33N 35°24' E 139°44'0 0.1
2014-Oct-29 17:33N 35°24' E 139°44'0 0.0
2014-Oct-29 16:33N 35°24' E 139°44'0 0.0
2014-Oct-29 15:33N 35°24' E 139°44'8 7.7
2014-Oct-29 14:33N 35°16' E 139°46'2 0.1
2014-Oct-28 04:31N 35°14' E 139°46'1010.9
2014-Oct-28 03:34N 35°24' E 139°43'6 5.7
2014-Oct-28 02:33N 35°30' E 139°43'1 0.6
2014-Oct-28 01:33N 35°30' E 139°43'0 0.0
2014-Oct-28 00:33N 35°30' E 139°43'0 0.0
2014-Oct-27 23:33N 35°30' E 139°43'0 0.0
2014-Oct-27 22:33N 35°30' E 139°43'0 0.0
2014-Oct-27 21:33N 35°30' E 139°43'0 0.0
2014-Oct-27 20:33N 35°30' E 139°43'0 0.0
2014-Oct-27 19:33N 35°30' E 139°43'0 0.0
2014-Oct-27 18:33N 35°30' E 139°43'0 0.0
2014-Oct-27 17:33N 35°30' E 139°43'0 0.0
2014-Oct-27 16:33N 35°30' E 139°43'0 0.0
2014-Oct-27 15:33N 35°30' E 139°43'0 0.0
2014-Oct-27 14:33N 35°30' E 139°43'0 0.0
2014-Oct-27 13:33N 35°30' E 139°43'0 0.0
2014-Oct-27 12:33N 35°30' E 139°43'0 0.0
2014-Oct-27 11:34N 35°30' E 139°43'0 0.0
2014-Oct-27 10:33N 35°30' E 139°43'0 0.0
2014-Oct-27 09:33N 35°30' E 139°43'0 0.0
2014-Oct-27 08:33N 35°30' E 139°43'0 0.0
2014-Oct-27 07:33N 35°30' E 139°43'0 0.0
2014-Oct-27 06:33N 35°30' E 139°43'0 0.0
2014-Oct-27 05:33N 35°30' E 139°43'0 0.0
2014-Oct-27 04:33N 35°30' E 139°43'5 5.1
2014-Oct-27 03:33N 35°25' E 139°45'2 1.7
2014-Oct-27 02:31N 35°24' E 139°44'0 0.0
2014-Oct-27 01:31N 35°24' E 139°44'0 0.0
2014-Oct-27 00:31N 35°24' E 139°44'0 0.0
2014-Oct-26 23:31N 35°24' E 139°44'0 0.0
2014-Oct-26 22:31N 35°24' E 139°44'0 0.0
2014-Oct-26 21:31N 35°24' E 139°44'0 0.0
2014-Oct-26 20:31N 35°24' E 139°44'0 0.0
2014-Oct-26 19:31N 35°24' E 139°44'0 0.0
2014-Oct-26 18:28N 35°24' E 139°44'8 8.9
2014-Oct-26 17:33N 35°16' E 139°47'4 0.1
2014-Oct-25 07:33N 35°12' E 139°46'1010.5
2014-Oct-25 06:33N 35°22' E 139°43'9 8.9
2014-Oct-25 05:32N 35°30' E 139°46'3 2.6
2014-Oct-25 04:33N 35°30' E 139°43'0 0.0
2014-Oct-25 03:33N 35°30' E 139°43'0 0.0
2014-Oct-25 02:33N 35°30' E 139°43'0 0.0
2014-Oct-25 01:33N 35°30' E 139°43'0 0.0
2014-Oct-25 00:34N 35°30' E 139°43'0 0.0
2014-Oct-24 23:33N 35°30' E 139°43'0 0.0
2014-Oct-24 22:33N 35°30' E 139°43'4 3.7
2014-Oct-24 21:33N 35°27' E 139°44'6 6.5
2014-Oct-24 20:34N 35°20' E 139°44'1010.2
2014-Oct-24 19:32N 35°10' E 139°47'1 0.0
2014-Oct-23 08:25N 35°11' E 139°46'1011.1
2014-Oct-23 07:33N 35°20' E 139°43'1110.8
2014-Oct-23 06:33N 35°30' E 139°48'4 3.9
2014-Oct-23 05:33N 35°30' E 139°43'0 0.0
2014-Oct-23 04:33N 35°30' E 139°43'0 0.0
2014-Oct-23 03:34N 35°30' E 139°43'0 0.0
2014-Oct-23 02:33N 35°30' E 139°43'4 3.8
2014-Oct-23 01:33N 35°27' E 139°44'7 7.1
2014-Oct-23 00:33N 35°19' E 139°44'10 9.6
2014-Oct-22 23:33N 35°10' E 139°47'  
Track history (hours):
 
Tides and Currents Weather Stations Pressure Air Temp Water Temp Dewpoint Dewpoint Depression Visibility Wind Speed Wind Dir Waves Ship Positions

Seneimaru

Last reported at 2014-Oct-31 20:33 UTC. Time now 2014-Oct-31 20:55 UTC.
Position N 35°24' E 139°44'.

Length 72 m; draft 5.9 m.

Type: Cargo ship. MMSI: 431100477.

Date/timePositionNaut miles runAvg speedWind from/ knotsBaromVisibWave heightAir tempDewpointWater temp
2014-Oct-31 20:33N 35°24' E 139°44'0 0.0
2014-Oct-31 19:31N 35°24' E 139°44'0 0.0
2014-Oct-31 18:31N 35°24' E 139°44'9 9.3
2014-Oct-31 17:33N 35°15' E 139°47'4 0.1
2014-Oct-30 07:27N 35°11' E 139°46'1010.7
2014-Oct-30 06:33N 35°20' E 139°43'1010.4
2014-Oct-30 05:33N 35°30' E 139°48'4 3.9
2014-Oct-30 04:33N 35°30' E 139°43'0 0.0
2014-Oct-30 03:33N 35°30' E 139°43'0 0.0
2014-Oct-30 02:33N 35°30' E 139°43'0 0.0
2014-Oct-30 01:33N 35°30' E 139°43'0 0.0
2014-Oct-30 00:33N 35°30' E 139°43'0 0.0
2014-Oct-29 23:33N 35°30' E 139°43'0 0.0
2014-Oct-29 22:33N 35°30' E 139°43'0 0.0
2014-Oct-29 21:33N 35°30' E 139°43'4 4.3
2014-Oct-29 20:33N 35°26' E 139°44'2 2.3
2014-Oct-29 19:33N 35°24' E 139°44'0 0.0
2014-Oct-29 18:33N 35°24' E 139°44'0 0.1
2014-Oct-29 17:33N 35°24' E 139°44'0 0.0
2014-Oct-29 16:33N 35°24' E 139°44'0 0.0
2014-Oct-29 15:33N 35°24' E 139°44'8 7.7
2014-Oct-29 14:33N 35°16' E 139°46'2 0.1
2014-Oct-28 04:31N 35°14' E 139°46'1010.9
2014-Oct-28 03:34N 35°24' E 139°43'6 5.7
2014-Oct-28 02:33N 35°30' E 139°43'1 0.6
2014-Oct-28 01:33N 35°30' E 139°43'0 0.0
2014-Oct-28 00:33N 35°30' E 139°43'0 0.0
2014-Oct-27 23:33N 35°30' E 139°43'0 0.0
2014-Oct-27 22:33N 35°30' E 139°43'0 0.0
2014-Oct-27 21:33N 35°30' E 139°43'0 0.0
2014-Oct-27 20:33N 35°30' E 139°43'0 0.0
2014-Oct-27 19:33N 35°30' E 139°43'0 0.0
2014-Oct-27 18:33N 35°30' E 139°43'0 0.0
2014-Oct-27 17:33N 35°30' E 139°43'0 0.0
2014-Oct-27 16:33N 35°30' E 139°43'0 0.0
2014-Oct-27 15:33N 35°30' E 139°43'0 0.0
2014-Oct-27 14:33N 35°30' E 139°43'0 0.0
2014-Oct-27 13:33N 35°30' E 139°43'0 0.0
2014-Oct-27 12:33N 35°30' E 139°43'0 0.0
2014-Oct-27 11:34N 35°30' E 139°43'0 0.0
2014-Oct-27 10:33N 35°30' E 139°43'0 0.0
2014-Oct-27 09:33N 35°30' E 139°43'0 0.0
2014-Oct-27 08:33N 35°30' E 139°43'0 0.0
2014-Oct-27 07:33N 35°30' E 139°43'0 0.0
2014-Oct-27 06:33N 35°30' E 139°43'0 0.0
2014-Oct-27 05:33N 35°30' E 139°43'0 0.0
2014-Oct-27 04:33N 35°30' E 139°43'5 5.1
2014-Oct-27 03:33N 35°25' E 139°45'2 1.7
2014-Oct-27 02:31N 35°24' E 139°44'0 0.0
2014-Oct-27 01:31N 35°24' E 139°44'0 0.0
2014-Oct-27 00:31N 35°24' E 139°44'0 0.0
2014-Oct-26 23:31N 35°24' E 139°44'0 0.0
2014-Oct-26 22:31N 35°24' E 139°44'0 0.0
2014-Oct-26 21:31N 35°24' E 139°44'0 0.0
2014-Oct-26 20:31N 35°24' E 139°44'0 0.0
2014-Oct-26 19:31N 35°24' E 139°44'0 0.0
2014-Oct-26 18:28N 35°24' E 139°44'8 8.9
2014-Oct-26 17:33N 35°16' E 139°47'4 0.1
2014-Oct-25 07:33N 35°12' E 139°46'1010.5
2014-Oct-25 06:33N 35°22' E 139°43'9 8.9
2014-Oct-25 05:32N 35°30' E 139°46'3 2.6
2014-Oct-25 04:33N 35°30' E 139°43'0 0.0
2014-Oct-25 03:33N 35°30' E 139°43'0 0.0
2014-Oct-25 02:33N 35°30' E 139°43'0 0.0
2014-Oct-25 01:33N 35°30' E 139°43'0 0.0
2014-Oct-25 00:34N 35°30' E 139°43'0 0.0
2014-Oct-24 23:33N 35°30' E 139°43'0 0.0
2014-Oct-24 22:33N 35°30' E 139°43'4 3.7
2014-Oct-24 21:33N 35°27' E 139°44'6 6.5
2014-Oct-24 20:34N 35°20' E 139°44'1010.2
2014-Oct-24 19:32N 35°10' E 139°47'1 0.0
2014-Oct-23 08:25N 35°11' E 139°46'1011.1
2014-Oct-23 07:33N 35°20' E 139°43'1110.8
2014-Oct-23 06:33N 35°30' E 139°48'4 3.9
2014-Oct-23 05:33N 35°30' E 139°43'0 0.0
2014-Oct-23 04:33N 35°30' E 139°43'0 0.0
2014-Oct-23 03:34N 35°30' E 139°43'0 0.0
2014-Oct-23 02:33N 35°30' E 139°43'4 3.8
2014-Oct-23 01:33N 35°27' E 139°44'7 7.1
2014-Oct-23 00:33N 35°19' E 139°44'10 9.6
2014-Oct-22 23:33N 35°10' E 139°47'  

Dump ship's entire track history